Airfield :
LOGIN :

Register | Disclaimer

   EN    FR    IT 

 










Legend :    VFR   Marginal VFR   IFR   Intensive IFR   Very Intensive IFR
Visi :
Ceiling :
>= 8 km
>= 3000ft
5 to 8 km
1000 to 3000 ft
1500m to 5 km
500 to 1000 ft
800 to 1500m
200 to 500 ft
< 800m
< 200 ft
Symbols :   Thunderstorms  Fog  Heavy snow  Heavy precipitations  Wind > 20 kt
SIGMETs :     Misc.  Thunderstorms  Icing  Turbulence  Mountain Waves  Volcanic Ashes






- Airport Elevation : 148 ft
- IATA code : ALL


LIMG - Villanova D'Albenga International

CURRENT METAR :
  • 290950Z 10004KT 9999 FEW035 21/14 Q0997

EXPIRED METARs :
  • 290850Z VRB02KT 9999 FEW030 20/14 Q0997
  • 290750Z 18003KT 130V300 9999 FEW030 16/13 Q0997

TAF TAF LIMG
Valid from the 29 at 07:00 until the 30 at 06:00 UTC


290627Z 2907/3006 13008KT 9999 SCT040
TEMPO 2909/2916 TSRA
BECMG 2916/2919 31010KT



MET'MAP, your aeronautical weather chart ! - Copyright ORBIFLY December 2007 - Disclaimer

ORBIFLY MET'MAP TEAM :

Programming & Development : Alexandra Zaïnal
Original concept : Baudouin d'Aumeries
Technical & hardware support : Manuel Goepfert
Assistance : Marc-Olivier Méhu




SOURCES & CREDITS :

   NOAA